sensor_id;sensor_type;location;lat;lon;timestamp;pressure;altitude;pressure_sealevel;temperature;humidity
3780;BME280;1905;52.482;9.802;2023-06-22T00:00:25;101395.78;;;22.58;58.04
3780;BME280;1905;52.482;9.802;2023-06-22T00:02:53;101388.94;;;22.54;57.84
3780;BME280;1905;52.482;9.802;2023-06-22T00:05:21;101380.00;;;22.53;58.04
3780;BME280;1905;52.482;9.802;2023-06-22T00:07:48;101375.00;;;22.49;57.97
3780;BME280;1905;52.482;9.802;2023-06-22T00:10:16;101371.84;;;22.44;57.89
3780;BME280;1905;52.482;9.802;2023-06-22T00:12:45;101373.19;;;22.38;58.05
3780;BME280;1905;52.482;9.802;2023-06-22T00:15:12;101386.75;;;22.37;58.37
3780;BME280;1905;52.482;9.802;2023-06-22T00:17:40;101383.59;;;22.32;58.54
3780;BME280;1905;52.482;9.802;2023-06-22T00:20:08;101385.56;;;22.30;58.29
3780;BME280;1905;52.482;9.802;2023-06-22T00:22:36;101394.84;;;22.26;58.23
3780;BME280;1905;52.482;9.802;2023-06-22T00:25:06;101389.75;;;22.23;58.21
3780;BME280;1905;52.482;9.802;2023-06-22T00:27:34;101390.22;;;22.17;58.60
3780;BME280;1905;52.482;9.802;2023-06-22T00:30:04;101404.66;;;22.16;58.26
3780;BME280;1905;52.482;9.802;2023-06-22T00:32:31;101404.91;;;22.13;58.79
3780;BME280;1905;52.482;9.802;2023-06-22T00:34:59;101408.81;;;22.09;58.51
3780;BME280;1905;52.482;9.802;2023-06-22T00:37:29;101403.78;;;22.04;58.26
3780;BME280;1905;52.482;9.802;2023-06-22T00:39:56;101404.16;;;22.00;58.62
3780;BME280;1905;52.482;9.802;2023-06-22T00:42:24;101409.78;;;21.97;58.61
3780;BME280;1905;52.482;9.802;2023-06-22T00:44:52;101411.13;;;21.91;58.89
3780;BME280;1905;52.482;9.802;2023-06-22T00:47:21;101413.97;;;21.89;58.46
3780;BME280;1905;52.482;9.802;2023-06-22T00:49:49;101411.50;;;21.86;58.61
3780;BME280;1905;52.482;9.802;2023-06-22T00:52:19;101408.91;;;21.85;58.73
3780;BME280;1905;52.482;9.802;2023-06-22T00:54:55;101403.88;;;21.80;58.83
3780;BME280;1905;52.482;9.802;2023-06-22T00:57:24;101399.75;;;21.76;58.80
3780;BME280;1905;52.482;9.802;2023-06-22T00:59:55;101392.88;;;21.72;58.81
3780;BME280;1905;52.482;9.802;2023-06-22T01:02:24;101388.72;;;21.68;59.02
3780;BME280;1905;52.482;9.802;2023-06-22T01:04:51;101381.63;;;21.67;59.38
3780;BME280;1905;52.482;9.802;2023-06-22T01:07:27;101372.09;;;21.63;59.07
3780;BME280;1905;52.482;9.802;2023-06-22T01:10:04;101366.19;;;21.58;59.19
3780;BME280;1905;52.482;9.802;2023-06-22T01:12:39;101371.00;;;21.55;59.08
3780;BME280;1905;52.482;9.802;2023-06-22T01:15:12;101369.50;;;21.51;59.15
3780;BME280;1905;52.482;9.802;2023-06-22T01:17:43;101366.94;;;21.49;59.18
3780;BME280;1905;52.482;9.802;2023-06-22T01:20:13;101361.56;;;21.49;59.20
3780;BME280;1905;52.482;9.802;2023-06-22T01:22:53;101355.81;;;21.43;59.40
3780;BME280;1905;52.482;9.802;2023-06-22T01:25:33;101356.91;;;21.40;59.02
3780;BME280;1905;52.482;9.802;2023-06-22T01:28:08;101358.88;;;21.38;59.14
3780;BME280;1905;52.482;9.802;2023-06-22T01:30:45;101353.97;;;21.32;59.19
3780;BME280;1905;52.482;9.802;2023-06-22T01:33:13;101341.47;;;21.31;59.43
3780;BME280;1905;52.482;9.802;2023-06-22T01:35:43;101338.06;;;21.29;59.55
3780;BME280;1905;52.482;9.802;2023-06-22T01:38:11;101340.03;;;21.27;59.46
3780;BME280;1905;52.482;9.802;2023-06-22T01:40:39;101338.53;;;21.23;59.50
3780;BME280;1905;52.482;9.802;2023-06-22T01:43:07;101342.22;;;21.22;59.78
3780;BME280;1905;52.482;9.802;2023-06-22T01:45:35;101338.78;;;21.20;59.65
3780;BME280;1905;52.482;9.802;2023-06-22T01:48:05;101340.97;;;21.15;59.48
3780;BME280;1905;52.482;9.802;2023-06-22T01:50:35;101332.16;;;21.13;59.67
3780;BME280;1905;52.482;9.802;2023-06-22T01:53:02;101336.91;;;21.09;59.62
3780;BME280;1905;52.482;9.802;2023-06-22T01:55:31;101340.69;;;21.07;59.46
3780;BME280;1905;52.482;9.802;2023-06-22T01:57:59;101347.03;;;21.06;59.54
3780;BME280;1905;52.482;9.802;2023-06-22T02:00:31;101335.66;;;21.02;59.42
3780;BME280;1905;52.482;9.802;2023-06-22T02:03:02;101346.53;;;21.01;59.79
3780;BME280;1905;52.482;9.802;2023-06-22T02:05:36;101346.75;;;20.98;59.46
3780;BME280;1905;52.482;9.802;2023-06-22T02:08:08;101350.78;;;20.92;59.67
3780;BME280;1905;52.482;9.802;2023-06-22T02:10:38;101352.47;;;20.93;59.68
3780;BME280;1905;52.482;9.802;2023-06-22T02:13:09;101357.22;;;20.90;59.90
3780;BME280;1905;52.482;9.802;2023-06-22T02:15:38;101353.78;;;20.88;60.04
3780;BME280;1905;52.482;9.802;2023-06-22T02:18:06;101354.00;;;20.85;59.92
3780;BME280;1905;52.482;9.802;2023-06-22T02:20:37;101351.44;;;20.83;59.97
3780;BME280;1905;52.482;9.802;2023-06-22T02:23:05;101358.78;;;20.81;59.95
3780;BME280;1905;52.482;9.802;2023-06-22T02:25:34;101362.78;;;20.75;60.00
3780;BME280;1905;52.482;9.802;2023-06-22T02:28:02;101351.31;;;20.73;59.86
3780;BME280;1905;52.482;9.802;2023-06-22T02:30:30;101353.22;;;20.71;59.98
3780;BME280;1905;52.482;9.802;2023-06-22T02:32:58;101353.44;;;20.68;60.09
3780;BME280;1905;52.482;9.802;2023-06-22T02:35:26;101353.44;;;20.68;60.13
3780;BME280;1905;52.482;9.802;2023-06-22T02:37:59;101353.59;;;20.67;59.74
3780;BME280;1905;52.482;9.802;2023-06-22T02:40:27;101359.09;;;20.65;60.15
3780;BME280;1905;52.482;9.802;2023-06-22T02:42:56;101355.63;;;20.63;60.03
3780;BME280;1905;52.482;9.802;2023-06-22T02:45:24;101359.53;;;20.59;60.02
3780;BME280;1905;52.482;9.802;2023-06-22T02:47:52;101358.03;;;20.55;60.14
3780;BME280;1905;52.482;9.802;2023-06-22T02:50:20;101366.09;;;20.55;60.03
3780;BME280;1905;52.482;9.802;2023-06-22T02:52:48;101371.56;;;20.54;60.14
3780;BME280;1905;52.482;9.802;2023-06-22T02:55:17;101378.63;;;20.55;60.00
3780;BME280;1905;52.482;9.802;2023-06-22T02:57:52;101383.41;;;20.51;59.96
3780;BME280;1905;52.482;9.802;2023-06-22T03:00:20;101388.00;;;20.49;60.09
3780;BME280;1905;52.482;9.802;2023-06-22T03:02:49;101391.69;;;20.48;60.07
3780;BME280;1905;52.482;9.802;2023-06-22T03:05:18;101389.22;;;20.45;60.14
3780;BME280;1905;52.482;9.802;2023-06-22T03:07:47;101392.84;;;20.44;60.00
3780;BME280;1905;52.482;9.802;2023-06-22T03:10:16;101393.06;;;20.41;60.25
3780;BME280;1905;52.482;9.802;2023-06-22T03:12:44;101396.00;;;20.38;60.24
3780;BME280;1905;52.482;9.802;2023-06-22T03:15:12;101396.09;;;20.37;60.37
3780;BME280;1905;52.482;9.802;2023-06-22T03:17:40;101395.25;;;20.36;60.18
3780;BME280;1905;52.482;9.802;2023-06-22T03:20:09;101394.50;;;20.34;60.52
3780;BME280;1905;52.482;9.802;2023-06-22T03:22:38;101396.66;;;20.29;60.21
3780;BME280;1905;52.482;9.802;2023-06-22T03:25:08;101391.31;;;20.29;60.54
3780;BME280;1905;52.482;9.802;2023-06-22T03:27:43;101395.94;;;20.27;60.18
3780;BME280;1905;52.482;9.802;2023-06-22T03:30:11;101403.22;;;20.25;60.52
3780;BME280;1905;52.482;9.802;2023-06-22T03:32:39;101407.63;;;20.26;60.57
3780;BME280;1905;52.482;9.802;2023-06-22T03:35:07;101405.13;;;20.23;60.84
3780;BME280;1905;52.482;9.802;2023-06-22T03:37:36;101403.41;;;20.22;60.49
3780;BME280;1905;52.482;9.802;2023-06-22T03:40:05;101402.88;;;20.17;60.70
3780;BME280;1905;52.482;9.802;2023-06-22T03:42:34;101404.69;;;20.16;60.78
3780;BME280;1905;52.482;9.802;2023-06-22T03:45:04;101407.28;;;20.18;60.85
3780;BME280;1905;52.482;9.802;2023-06-22T03:47:32;101400.97;;;20.19;60.59
3780;BME280;1905;52.482;9.802;2023-06-22T03:50:00;101400.19;;;20.17;60.70
3780;BME280;1905;52.482;9.802;2023-06-22T03:52:29;101400.19;;;20.17;60.64
3780;BME280;1905;52.482;9.802;2023-06-22T03:54:57;101403.00;;;20.15;60.45
3780;BME280;1905;52.482;9.802;2023-06-22T03:57:25;101400.66;;;20.11;60.73
3780;BME280;1905;52.482;9.802;2023-06-22T03:59:54;101396.25;;;20.10;60.57
3780;BME280;1905;52.482;9.802;2023-06-22T04:02:23;101393.34;;;20.13;60.69
3780;BME280;1905;52.482;9.802;2023-06-22T04:04:50;101389.06;;;20.10;60.70
3780;BME280;1905;52.482;9.802;2023-06-22T04:07:18;101390.88;;;20.10;60.62
3780;BME280;1905;52.482;9.802;2023-06-22T04:09:45;101402.56;;;20.09;60.72
3780;BME280;1905;52.482;9.802;2023-06-22T04:12:13;101407.94;;;20.09;60.86
3780;BME280;1905;52.482;9.802;2023-06-22T04:14:41;101406.25;;;20.08;60.72
3780;BME280;1905;52.482;9.802;2023-06-22T04:17:08;101410.63;;;20.09;60.65
3780;BME280;1905;52.482;9.802;2023-06-22T04:19:37;101409.88;;;20.07;60.68
3780;BME280;1905;52.482;9.802;2023-06-22T04:22:05;101402.78;;;20.06;60.55
3780;BME280;1905;52.482;9.802;2023-06-22T04:24:33;101410.63;;;20.09;60.60
3780;BME280;1905;52.482;9.802;2023-06-22T04:27:01;101407.31;;;20.05;60.30
3780;BME280;1905;52.482;9.802;2023-06-22T04:29:29;101401.09;;;20.05;60.68
3780;BME280;1905;52.482;9.802;2023-06-22T04:31:57;101402.78;;;20.06;60.52
3780;BME280;1905;52.482;9.802;2023-06-22T04:34:29;101390.38;;;20.05;60.54
3780;BME280;1905;52.482;9.802;2023-06-22T04:36:58;101389.50;;;20.04;60.53
3780;BME280;1905;52.482;9.802;2023-06-22T04:39:25;101392.06;;;20.06;60.57
3780;BME280;1905;52.482;9.802;2023-06-22T04:41:53;101389.50;;;20.04;60.54
3780;BME280;1905;52.482;9.802;2023-06-22T04:44:26;101390.16;;;20.08;60.15
3780;BME280;1905;52.482;9.802;2023-06-22T04:46:56;101396.25;;;20.10;60.52
3780;BME280;1905;52.482;9.802;2023-06-22T04:49:27;101398.94;;;20.10;59.97
3780;BME280;1905;52.482;9.802;2023-06-22T04:52:01;101405.03;;;20.12;60.19
3780;BME280;1905;52.482;9.802;2023-06-22T04:54:29;101399.31;;;20.16;60.19
3780;BME280;1905;52.482;9.802;2023-06-22T04:56:59;101406.19;;;20.20;60.11
3780;BME280;1905;52.482;9.802;2023-06-22T04:59:28;101399.75;;;20.23;59.78
3780;BME280;1905;52.482;9.802;2023-06-22T05:01:57;101394.38;;;20.23;59.80
3780;BME280;1905;52.482;9.802;2023-06-22T05:04:26;101401.31;;;20.27;59.52
3780;BME280;1905;52.482;9.802;2023-06-22T05:06:54;101404.72;;;20.29;59.97
3780;BME280;1905;52.482;9.802;2023-06-22T05:09:24;101396.53;;;20.31;59.64
3780;BME280;1905;52.482;9.802;2023-06-22T05:11:52;101395.69;;;20.30;59.71
3780;BME280;1905;52.482;9.802;2023-06-22T05:14:19;101399.22;;;20.31;59.97
3780;BME280;1905;52.482;9.802;2023-06-22T05:16:48;101392.03;;;20.31;60.02
3780;BME280;1905;52.482;9.802;2023-06-22T05:19:18;101392.78;;;20.33;59.61
3780;BME280;1905;52.482;9.802;2023-06-22T05:21:45;101384.50;;;20.36;60.11
3780;BME280;1905;52.482;9.802;2023-06-22T05:24:13;101377.22;;;20.38;60.69
3780;BME280;1905;52.482;9.802;2023-06-22T05:26:42;101380.44;;;20.43;60.96
3780;BME280;1905;52.482;9.802;2023-06-22T05:29:09;101374.94;;;20.45;60.83
3780;BME280;1905;52.482;9.802;2023-06-22T05:31:37;101384.50;;;20.49;60.32
3780;BME280;1905;52.482;9.802;2023-06-22T05:34:06;101382.31;;;20.54;60.19
3780;BME280;1905;52.482;9.802;2023-06-22T05:36:34;101381.22;;;20.56;60.73
3780;BME280;1905;52.482;9.802;2023-06-22T05:39:11;101375.19;;;20.65;62.32
3780;BME280;1905;52.482;9.802;2023-06-22T05:41:38;101375.28;;;20.64;60.75
3780;BME280;1905;52.482;9.802;2023-06-22T05:44:07;101373.09;;;20.69;61.78
3780;BME280;1905;52.482;9.802;2023-06-22T05:46:35;101372.78;;;20.73;61.21
3780;BME280;1905;52.482;9.802;2023-06-22T05:49:03;101375.97;;;20.78;61.93
3780;BME280;1905;52.482;9.802;2023-06-22T05:51:30;101373.81;;;20.84;60.82
3780;BME280;1905;52.482;9.802;2023-06-22T05:53:58;101382.38;;;20.89;60.95
3780;BME280;1905;52.482;9.802;2023-06-22T05:56:25;101379.22;;;20.95;59.76
3780;BME280;1905;52.482;9.802;2023-06-22T05:58:53;101384.22;;;20.99;61.57
3780;BME280;1905;52.482;9.802;2023-06-22T06:01:22;101390.25;;;21.03;60.66
3780;BME280;1905;52.482;9.802;2023-06-22T06:03:49;101386.25;;;21.08;61.46
3780;BME280;1905;52.482;9.802;2023-06-22T06:06:19;101384.19;;;21.12;61.04
3780;BME280;1905;52.482;9.802;2023-06-22T06:08:47;101369.41;;;21.17;60.71
3780;BME280;1905;52.482;9.802;2023-06-22T06:11:15;101371.78;;;21.22;61.26
3780;BME280;1905;52.482;9.802;2023-06-22T06:13:42;101368.00;;;21.24;60.94
3780;BME280;1905;52.482;9.802;2023-06-22T06:16:10;101368.34;;;21.31;60.59
3780;BME280;1905;52.482;9.802;2023-06-22T06:18:44;101377.91;;;21.35;60.86
3780;BME280;1905;52.482;9.802;2023-06-22T06:21:11;101370.59;;;21.48;62.02
3780;BME280;1905;52.482;9.802;2023-06-22T06:23:39;101372.09;;;21.52;61.55
3780;BME280;1905;52.482;9.802;2023-06-22T06:26:06;101368.66;;;21.61;61.41
3780;BME280;1905;52.482;9.802;2023-06-22T06:28:34;101367.69;;;21.62;60.52
3780;BME280;1905;52.482;9.802;2023-06-22T06:31:02;101359.97;;;21.69;60.65
3780;BME280;1905;52.482;9.802;2023-06-22T06:33:33;101360.13;;;21.78;60.29
3780;BME280;1905;52.482;9.802;2023-06-22T06:36:02;101354.38;;;21.83;60.22
3780;BME280;1905;52.482;9.802;2023-06-22T06:38:30;101360.41;;;21.86;59.52
3780;BME280;1905;52.482;9.802;2023-06-22T06:40:57;101354.53;;;21.92;59.17
3780;BME280;1905;52.482;9.802;2023-06-22T06:43:25;101350.97;;;22.03;60.58
3780;BME280;1905;52.482;9.802;2023-06-22T06:45:53;101350.34;;;22.11;60.29
3780;BME280;1905;52.482;9.802;2023-06-22T06:48:20;101346.69;;;22.23;60.26
3780;BME280;1905;52.482;9.802;2023-06-22T06:50:48;101344.47;;;22.28;59.86
3780;BME280;1905;52.482;9.802;2023-06-22T06:53:17;101340.75;;;22.40;60.40
3780;BME280;1905;52.482;9.802;2023-06-22T06:55:45;101334.13;;;22.44;60.05
3780;BME280;1905;52.482;9.802;2023-06-22T06:58:13;101341.94;;;22.58;60.50
3780;BME280;1905;52.482;9.802;2023-06-22T07:00:41;101341.94;;;22.58;58.67
3780;BME280;1905;52.482;9.802;2023-06-22T07:03:09;101343.38;;;22.73;60.03
3780;BME280;1905;52.482;9.802;2023-06-22T07:05:37;101345.81;;;22.76;59.15
3780;BME280;1905;52.482;9.802;2023-06-22T07:08:05;101335.50;;;22.81;58.92
3780;BME280;1905;52.482;9.802;2023-06-22T07:10:34;101340.84;;;22.92;60.19
3780;BME280;1905;52.482;9.802;2023-06-22T07:13:01;101341.91;;;23.01;58.43
3780;BME280;1905;52.482;9.802;2023-06-22T07:15:29;101340.13;;;23.11;59.69
3780;BME280;1905;52.482;9.802;2023-06-22T07:17:56;101335.94;;;23.18;59.17
3780;BME280;1905;52.482;9.802;2023-06-22T07:20:24;101343.34;;;23.26;58.88
3780;BME280;1905;52.482;9.802;2023-06-22T07:22:52;101337.13;;;23.35;58.63
3780;BME280;1905;52.482;9.802;2023-06-22T07:25:19;101335.25;;;23.46;58.57
3780;BME280;1905;52.482;9.802;2023-06-22T07:27:58;101340.72;;;23.56;57.84
3780;BME280;1905;52.482;9.802;2023-06-22T07:30:28;101332.56;;;23.67;57.44
3780;BME280;1905;52.482;9.802;2023-06-22T07:32:56;101329.72;;;23.78;57.57
3780;BME280;1905;52.482;9.802;2023-06-22T07:35:24;101334.22;;;23.89;58.08
3780;BME280;1905;52.482;9.802;2023-06-22T07:37:52;101324.13;;;24.00;58.71
3780;BME280;1905;52.482;9.802;2023-06-22T07:40:19;101332.75;;;24.15;58.21
3780;BME280;1905;52.482;9.802;2023-06-22T07:42:47;101328.81;;;24.28;57.32
3780;BME280;1905;52.482;9.802;2023-06-22T07:45:19;101324.97;;;24.41;58.83
3780;BME280;1905;52.482;9.802;2023-06-22T07:47:46;101327.25;;;24.55;57.97
3780;BME280;1905;52.482;9.802;2023-06-22T07:50:14;101325.13;;;24.68;57.60
3780;BME280;1905;52.482;9.802;2023-06-22T07:52:42;101327.31;;;24.83;56.85
3780;BME280;1905;52.482;9.802;2023-06-22T07:55:09;101329.16;;;25.02;56.74
3780;BME280;1905;52.482;9.802;2023-06-22T07:57:37;101326.88;;;25.07;56.76
3780;BME280;1905;52.482;9.802;2023-06-22T08:00:06;101327.41;;;25.20;56.54
3780;BME280;1905;52.482;9.802;2023-06-22T08:02:41;101324.53;;;25.41;56.37
3780;BME280;1905;52.482;9.802;2023-06-22T08:05:09;101315.13;;;25.55;55.91
3780;BME280;1905;52.482;9.802;2023-06-22T08:07:48;101319.31;;;25.76;56.50
3780;BME280;1905;52.482;9.802;2023-06-22T08:10:16;101310.94;;;25.97;55.31
3780;BME280;1905;52.482;9.802;2023-06-22T08:12:44;101302.31;;;26.11;54.16
3780;BME280;1905;52.482;9.802;2023-06-22T08:15:11;101296.81;;;26.30;55.07
3780;BME280;1905;52.482;9.802;2023-06-22T08:17:40;101301.53;;;26.46;55.29
3780;BME280;1905;52.482;9.802;2023-06-22T08:20:09;101306.50;;;26.68;54.85
3780;BME280;1905;52.482;9.802;2023-06-22T08:22:38;101308.53;;;26.84;55.03
3780;BME280;1905;52.482;9.802;2023-06-22T08:25:07;101307.34;;;27.04;54.78
3780;BME280;1905;52.482;9.802;2023-06-22T08:27:35;101304.44;;;27.23;54.99
3780;BME280;1905;52.482;9.802;2023-06-22T08:30:03;101303.53;;;27.40;54.96
3780;BME280;1905;52.482;9.802;2023-06-22T08:32:31;101301.63;;;27.58;54.41
3780;BME280;1905;52.482;9.802;2023-06-22T08:35:01;101307.66;;;27.78;54.38
3780;BME280;1905;52.482;9.802;2023-06-22T08:37:29;101309.22;;;27.89;53.59
3780;BME280;1905;52.482;9.802;2023-06-22T08:39:59;101303.50;;;28.00;53.17
3780;BME280;1905;52.482;9.802;2023-06-22T08:42:27;101301.72;;;28.16;52.42
3780;BME280;1905;52.482;9.802;2023-06-22T08:44:55;101303.28;;;28.35;54.79
3780;BME280;1905;52.482;9.802;2023-06-22T08:47:23;101304.69;;;28.47;54.37
3780;BME280;1905;52.482;9.802;2023-06-22T08:49:50;101310.19;;;28.63;52.31
3780;BME280;1905;52.482;9.802;2023-06-22T08:52:19;101304.41;;;28.82;53.76
3780;BME280;1905;52.482;9.802;2023-06-22T08:54:47;101299.97;;;28.98;53.10
3780;BME280;1905;52.482;9.802;2023-06-22T08:57:15;101300.66;;;29.16;53.42
3780;BME280;1905;52.482;9.802;2023-06-22T08:59:43;101292.66;;;29.30;52.72
3780;BME280;1905;52.482;9.802;2023-06-22T09:02:10;101296.88;;;29.41;50.90
3780;BME280;1905;52.482;9.802;2023-06-22T09:04:38;101296.38;;;29.54;50.71
3780;BME280;1905;52.482;9.802;2023-06-22T09:07:06;101297.09;;;29.39;49.26
3780;BME280;1905;52.482;9.802;2023-06-22T09:09:35;101299.91;;;29.62;50.76
3780;BME280;1905;52.482;9.802;2023-06-22T09:12:03;101300.88;;;29.77;51.17
3780;BME280;1905;52.482;9.802;2023-06-22T09:14:31;101292.34;;;29.88;50.06
3780;BME280;1905;52.482;9.802;2023-06-22T09:16:58;101281.22;;;29.98;50.19
3780;BME280;1905;52.482;9.802;2023-06-22T09:19:26;101279.31;;;30.06;49.91
3780;BME280;1905;52.482;9.802;2023-06-22T09:21:53;101274.00;;;30.13;49.44
3780;BME280;1905;52.482;9.802;2023-06-22T09:24:21;101274.13;;;30.20;50.07
3780;BME280;1905;52.482;9.802;2023-06-22T09:26:50;101267.59;;;30.29;48.88
3780;BME280;1905;52.482;9.802;2023-06-22T09:29:20;101267.91;;;30.34;48.26
3780;BME280;1905;52.482;9.802;2023-06-22T09:31:48;101269.44;;;30.36;48.58
3780;BME280;1905;52.482;9.802;2023-06-22T09:34:16;101269.59;;;30.43;48.49
3780;BME280;1905;52.482;9.802;2023-06-22T09:36:46;101269.53;;;30.51;47.82
3780;BME280;1905;52.482;9.802;2023-06-22T09:39:14;101263.72;;;30.54;47.84
3780;BME280;1905;52.482;9.802;2023-06-22T09:41:41;101259.75;;;30.56;47.68
3780;BME280;1905;52.482;9.802;2023-06-22T09:44:10;101259.03;;;30.62;47.96
3780;BME280;1905;52.482;9.802;2023-06-22T09:46:38;101254.03;;;30.66;47.83
3780;BME280;1905;52.482;9.802;2023-06-22T09:49:06;101252.00;;;30.68;47.53
3780;BME280;1905;52.482;9.802;2023-06-22T09:51:34;101257.75;;;30.73;47.29
3780;BME280;1905;52.482;9.802;2023-06-22T09:54:01;101250.22;;;30.75;47.58
3780;BME280;1905;52.482;9.802;2023-06-22T09:56:29;101249.50;;;30.81;47.42
3780;BME280;1905;52.482;9.802;2023-06-22T09:58:57;101234.81;;;30.82;47.48
3780;BME280;1905;52.482;9.802;2023-06-22T10:01:44;101240.75;;;30.86;47.07
3780;BME280;1905;52.482;9.802;2023-06-22T10:04:12;101242.63;;;30.85;47.02
3780;BME280;1905;52.482;9.802;2023-06-22T10:06:40;101246.03;;;30.87;47.01
3780;BME280;1905;52.482;9.802;2023-06-22T10:09:08;101251.09;;;30.90;47.10
3780;BME280;1905;52.482;9.802;2023-06-22T10:11:35;101246.16;;;30.94;47.44
3780;BME280;1905;52.482;9.802;2023-06-22T10:14:03;101248.88;;;30.94;47.53
3780;BME280;1905;52.482;9.802;2023-06-22T10:16:31;101245.78;;;30.97;47.55
3780;BME280;1905;52.482;9.802;2023-06-22T10:19:01;101246.94;;;31.02;46.98
3780;BME280;1905;52.482;9.802;2023-06-22T10:21:28;101237.34;;;31.06;47.38
3780;BME280;1905;52.482;9.802;2023-06-22T10:23:56;101236.66;;;31.04;47.16
3780;BME280;1905;52.482;9.802;2023-06-22T10:26:24;101238.00;;;31.08;47.41
3780;BME280;1905;52.482;9.802;2023-06-22T10:28:52;101236.03;;;31.02;47.23
3780;BME280;1905;52.482;9.802;2023-06-22T10:31:40;101238.66;;;31.10;47.38
3780;BME280;1905;52.482;9.802;2023-06-22T10:34:09;101230.00;;;31.21;47.47
3780;BME280;1905;52.482;9.802;2023-06-22T10:36:36;101221.06;;;31.28;46.74
3780;BME280;1905;52.482;9.802;2023-06-22T10:39:04;101222.38;;;31.32;46.87
3780;BME280;1905;52.482;9.802;2023-06-22T10:41:32;101207.50;;;31.34;46.33
3780;BME280;1905;52.482;9.802;2023-06-22T10:43:59;101212.22;;;31.40;46.93
3780;BME280;1905;52.482;9.802;2023-06-22T10:46:27;101210.81;;;31.44;46.49
3780;BME280;1905;52.482;9.802;2023-06-22T10:48:54;101205.81;;;31.48;46.13
3780;BME280;1905;52.482;9.802;2023-06-22T10:51:26;101211.97;;;31.50;46.78
3780;BME280;1905;52.482;9.802;2023-06-22T10:53:55;101201.69;;;31.52;46.34
3780;BME280;1905;52.482;9.802;2023-06-22T10:56:23;101205.34;;;31.59;45.87
3780;BME280;1905;52.482;9.802;2023-06-22T10:58:51;101198.47;;;31.63;46.55
3780;BME280;1905;52.482;9.802;2023-06-22T11:01:20;101193.00;;;31.63;46.58
3780;BME280;1905;52.482;9.802;2023-06-22T11:04:01;101199.03;;;31.73;46.71
3780;BME280;1905;52.482;9.802;2023-06-22T11:06:31;101195.91;;;31.76;46.11
3780;BME280;1905;52.482;9.802;2023-06-22T11:08:58;101195.31;;;31.80;46.00
3780;BME280;1905;52.482;9.802;2023-06-22T11:11:29;101193.69;;;31.86;46.44
3780;BME280;1905;52.482;9.802;2023-06-22T11:13:56;101195.03;;;31.90;46.55
3780;BME280;1905;52.482;9.802;2023-06-22T11:16:24;101190.84;;;31.94;46.08
3780;BME280;1905;52.482;9.802;2023-06-22T11:18:52;101190.13;;;32.00;46.12
3780;BME280;1905;52.482;9.802;2023-06-22T11:21:19;101179.44;;;32.05;46.34
3780;BME280;1905;52.482;9.802;2023-06-22T11:23:48;101179.69;;;32.10;46.25
3780;BME280;1905;52.482;9.802;2023-06-22T11:26:16;101175.56;;;32.14;46.11
3780;BME280;1905;52.482;9.802;2023-06-22T11:28:44;101178.34;;;32.21;45.91
3780;BME280;1905;52.482;9.802;2023-06-22T11:31:12;101180.28;;;32.27;46.55
3780;BME280;1905;52.482;9.802;2023-06-22T11:33:43;101180.75;;;32.30;45.99
3780;BME280;1905;52.482;9.802;2023-06-22T11:36:11;101178.28;;;32.35;46.34
3780;BME280;1905;52.482;9.802;2023-06-22T11:38:39;101178.53;;;32.40;46.25
3780;BME280;1905;52.482;9.802;2023-06-22T11:41:09;101175.41;;;32.44;45.50
3780;BME280;1905;52.482;9.802;2023-06-22T11:43:37;101172.75;;;32.50;45.83
3780;BME280;1905;52.482;9.802;2023-06-22T11:46:04;101176.59;;;32.56;45.97
3780;BME280;1905;52.482;9.802;2023-06-22T11:48:34;101164.19;;;32.60;45.33
3780;BME280;1905;52.482;9.802;2023-06-22T11:51:02;101155.59;;;32.63;46.21
3780;BME280;1905;52.482;9.802;2023-06-22T11:53:30;101148.69;;;32.67;45.81
3780;BME280;1905;52.482;9.802;2023-06-22T11:55:57;101142.78;;;32.70;45.57
3780;BME280;1905;52.482;9.802;2023-06-22T11:58:27;101137.78;;;32.73;45.36
3780;BME280;1905;52.482;9.802;2023-06-22T12:00:55;101135.28;;;32.78;45.19
3780;BME280;1905;52.482;9.802;2023-06-22T12:03:23;101138.47;;;32.82;45.09
3780;BME280;1905;52.482;9.802;2023-06-22T12:05:51;101135.75;;;32.82;45.73
3780;BME280;1905;52.482;9.802;2023-06-22T12:08:18;101125.88;;;32.87;45.24
3780;BME280;1905;52.482;9.802;2023-06-22T12:10:46;101114.31;;;32.92;45.06
3780;BME280;1905;52.482;9.802;2023-06-22T12:13:14;101115.16;;;32.92;45.47
3780;BME280;1905;52.482;9.802;2023-06-22T12:15:44;101108.03;;;32.98;44.99
3780;BME280;1905;52.482;9.802;2023-06-22T12:18:11;101100.06;;;33.03;45.36
3780;BME280;1905;52.482;9.802;2023-06-22T12:20:40;101091.25;;;33.08;45.43
3780;BME280;1905;52.482;9.802;2023-06-22T12:23:08;101087.94;;;33.12;45.13
3780;BME280;1905;52.482;9.802;2023-06-22T12:25:36;101080.34;;;33.14;45.29
3780;BME280;1905;52.482;9.802;2023-06-22T12:28:03;101082.28;;;33.20;44.91
3780;BME280;1905;52.482;9.802;2023-06-22T12:30:32;101077.88;;;33.26;44.83
3780;BME280;1905;52.482;9.802;2023-06-22T12:33:01;101083.78;;;33.29;44.69
3780;BME280;1905;52.482;9.802;2023-06-22T12:35:29;101080.00;;;33.30;44.85
3780;BME280;1905;52.482;9.802;2023-06-22T12:37:56;101073.88;;;33.28;45.26
3780;BME280;1905;52.482;9.802;2023-06-22T12:40:24;101079.59;;;33.33;45.18
3780;BME280;1905;52.482;9.802;2023-06-22T12:42:52;101071.16;;;33.35;44.78
3780;BME280;1905;52.482;9.802;2023-06-22T12:45:19;101068.22;;;33.36;44.90
3780;BME280;1905;52.482;9.802;2023-06-22T12:47:47;101065.66;;;33.35;44.87
3780;BME280;1905;52.482;9.802;2023-06-22T12:50:17;101062.50;;;33.31;45.21
3780;BME280;1905;52.482;9.802;2023-06-22T12:52:45;101060.41;;;33.33;44.97
3780;BME280;1905;52.482;9.802;2023-06-22T12:55:12;101062.09;;;33.34;44.37
3780;BME280;1905;52.482;9.802;2023-06-22T12:57:40;101050.06;;;33.35;44.73
3780;BME280;1905;52.482;9.802;2023-06-22T13:00:09;101053.88;;;33.34;44.58
3780;BME280;1905;52.482;9.802;2023-06-22T13:02:38;101044.59;;;33.35;44.49
3780;BME280;1905;52.482;9.802;2023-06-22T13:05:06;101045.03;;;33.39;45.23
3780;BME280;1905;52.482;9.802;2023-06-22T13:07:35;101040.19;;;33.41;44.62
3780;BME280;1905;52.482;9.802;2023-06-22T13:10:03;101032.41;;;33.44;44.97
3780;BME280;1905;52.482;9.802;2023-06-22T13:12:31;101032.81;;;33.41;44.85
3780;BME280;1905;52.482;9.802;2023-06-22T13:14:58;101025.44;;;33.48;44.86
3780;BME280;1905;52.482;9.802;2023-06-22T13:17:26;101021.47;;;33.51;44.88